sensor_id;sensor_type;location;lat;lon;timestamp;temperature;humidity
30520;DHT22;17300;50.374;8.006;2023-02-24T00:01:55;13.00;55.50
30520;DHT22;17300;50.374;8.006;2023-02-24T00:04:26;13.00;55.50
30520;DHT22;17300;50.374;8.006;2023-02-24T00:06:53;13.00;55.40
30520;DHT22;17300;50.374;8.006;2023-02-24T00:09:22;13.00;55.40
30520;DHT22;17300;50.374;8.006;2023-02-24T00:11:53;13.00;55.50
30520;DHT22;17300;50.374;8.006;2023-02-24T00:14:22;13.00;55.50
30520;DHT22;17300;50.374;8.006;2023-02-24T00:16:50;13.00;55.50
30520;DHT22;17300;50.374;8.006;2023-02-24T00:19:22;13.00;55.50
30520;DHT22;17300;50.374;8.006;2023-02-24T00:21:49;13.00;55.50
30520;DHT22;17300;50.374;8.006;2023-02-24T00:24:19;13.00;55.50
30520;DHT22;17300;50.374;8.006;2023-02-24T00:26:50;13.00;55.50
30520;DHT22;17300;50.374;8.006;2023-02-24T00:29:19;13.00;55.50
30520;DHT22;17300;50.374;8.006;2023-02-24T00:31:49;13.00;55.50
30520;DHT22;17300;50.374;8.006;2023-02-24T00:34:22;13.00;55.50
30520;DHT22;17300;50.374;8.006;2023-02-24T00:36:49;13.00;55.40
30520;DHT22;17300;50.374;8.006;2023-02-24T00:39:15;13.00;55.40
30520;DHT22;17300;50.374;8.006;2023-02-24T00:41:43;13.00;55.40
30520;DHT22;17300;50.374;8.006;2023-02-24T00:44:11;13.00;55.40
30520;DHT22;17300;50.374;8.006;2023-02-24T00:46:40;13.00;55.40
30520;DHT22;17300;50.374;8.006;2023-02-24T00:49:09;13.00;55.40
30520;DHT22;17300;50.374;8.006;2023-02-24T00:51:39;13.00;55.40
30520;DHT22;17300;50.374;8.006;2023-02-24T00:54:07;13.00;55.40
30520;DHT22;17300;50.374;8.006;2023-02-24T00:56:39;12.90;55.30
30520;DHT22;17300;50.374;8.006;2023-02-24T00:59:06;12.90;55.30
30520;DHT22;17300;50.374;8.006;2023-02-24T01:01:33;12.90;55.40
30520;DHT22;17300;50.374;8.006;2023-02-24T01:04:02;12.90;55.40
30520;DHT22;17300;50.374;8.006;2023-02-24T01:06:37;12.90;55.40
30520;DHT22;17300;50.374;8.006;2023-02-24T01:09:04;12.90;55.40
30520;DHT22;17300;50.374;8.006;2023-02-24T01:11:36;12.80;55.30
30520;DHT22;17300;50.374;8.006;2023-02-24T01:14:23;12.80;55.20
30520;DHT22;17300;50.374;8.006;2023-02-24T01:16:50;12.80;55.20
30520;DHT22;17300;50.374;8.006;2023-02-24T01:19:17;12.80;55.30
30520;DHT22;17300;50.374;8.006;2023-02-24T01:21:45;12.80;55.40
30520;DHT22;17300;50.374;8.006;2023-02-24T01:24:12;12.70;55.30
30520;DHT22;17300;50.374;8.006;2023-02-24T01:26:40;12.70;55.30
30520;DHT22;17300;50.374;8.006;2023-02-24T01:29:07;12.70;55.30
30520;DHT22;17300;50.374;8.006;2023-02-24T01:31:35;12.70;55.40
30520;DHT22;17300;50.374;8.006;2023-02-24T01:34:02;12.70;55.40
30520;DHT22;17300;50.374;8.006;2023-02-24T01:36:31;12.70;55.40
30520;DHT22;17300;50.374;8.006;2023-02-24T01:39:00;12.60;55.30
30520;DHT22;17300;50.374;8.006;2023-02-24T01:41:30;12.60;55.30
30520;DHT22;17300;50.374;8.006;2023-02-24T01:43:59;12.60;55.40
30520;DHT22;17300;50.374;8.006;2023-02-24T01:46:28;12.60;55.40
30520;DHT22;17300;50.374;8.006;2023-02-24T01:49:01;12.60;55.50
30520;DHT22;17300;50.374;8.006;2023-02-24T01:51:31;12.60;55.50
30520;DHT22;17300;50.374;8.006;2023-02-24T01:54:01;12.60;55.80
30520;DHT22;17300;50.374;8.006;2023-02-24T01:56:30;12.60;55.50
30520;DHT22;17300;50.374;8.006;2023-02-24T01:58:58;12.60;55.40
30520;DHT22;17300;50.374;8.006;2023-02-24T02:01:26;12.60;55.40
30520;DHT22;17300;50.374;8.006;2023-02-24T02:03:56;12.60;55.30
30520;DHT22;17300;50.374;8.006;2023-02-24T02:06:26;12.60;55.40
30520;DHT22;17300;50.374;8.006;2023-02-24T02:08:53;12.60;55.40
30520;DHT22;17300;50.374;8.006;2023-02-24T02:11:21;12.70;55.40
30520;DHT22;17300;50.374;8.006;2023-02-24T02:13:50;12.70;55.40
30520;DHT22;17300;50.374;8.006;2023-02-24T02:16:43;12.70;55.50
30520;DHT22;17300;50.374;8.006;2023-02-24T02:19:47;12.70;55.50
30520;DHT22;17300;50.374;8.006;2023-02-24T02:22:42;12.70;55.30
30520;DHT22;17300;50.374;8.006;2023-02-24T02:25:19;12.70;55.20
30520;DHT22;17300;50.374;8.006;2023-02-24T02:28:11;12.70;55.20
30520;DHT22;17300;50.374;8.006;2023-02-24T02:31:03;12.70;55.10
30520;DHT22;17300;50.374;8.006;2023-02-24T02:34:13;12.70;55.00
30520;DHT22;17300;50.374;8.006;2023-02-24T02:36:53;12.70;55.00
30520;DHT22;17300;50.374;8.006;2023-02-24T02:39:26;12.70;55.00
30520;DHT22;17300;50.374;8.006;2023-02-24T02:42:04;12.70;54.90
30520;DHT22;17300;50.374;8.006;2023-02-24T02:44:44;12.70;54.90
30520;DHT22;17300;50.374;8.006;2023-02-24T02:47:32;12.60;54.90
30520;DHT22;17300;50.374;8.006;2023-02-24T02:50:06;12.60;54.80
30520;DHT22;17300;50.374;8.006;2023-02-24T02:52:39;12.60;54.80
30520;DHT22;17300;50.374;8.006;2023-02-24T02:55:10;12.60;54.80
30520;DHT22;17300;50.374;8.006;2023-02-24T02:57:41;12.50;54.80
30520;DHT22;17300;50.374;8.006;2023-02-24T03:00:14;12.50;54.80
30520;DHT22;17300;50.374;8.006;2023-02-24T03:02:48;12.50;54.80
30520;DHT22;17300;50.374;8.006;2023-02-24T03:05:19;12.50;54.80
30520;DHT22;17300;50.374;8.006;2023-02-24T03:07:51;12.40;54.70
30520;DHT22;17300;50.374;8.006;2023-02-24T03:10:20;12.40;54.70
30520;DHT22;17300;50.374;8.006;2023-02-24T03:12:51;12.40;54.70
30520;DHT22;17300;50.374;8.006;2023-02-24T03:15:21;12.30;54.70
30520;DHT22;17300;50.374;8.006;2023-02-24T03:17:52;12.40;54.70
30520;DHT22;17300;50.374;8.006;2023-02-24T03:20:23;12.40;54.70
30520;DHT22;17300;50.374;8.006;2023-02-24T03:22:57;12.30;54.60
30520;DHT22;17300;50.374;8.006;2023-02-24T03:25:27;12.30;54.70
30520;DHT22;17300;50.374;8.006;2023-02-24T03:27:58;12.30;54.80
30520;DHT22;17300;50.374;8.006;2023-02-24T03:30:36;12.30;54.80
30520;DHT22;17300;50.374;8.006;2023-02-24T03:33:11;12.30;54.90
30520;DHT22;17300;50.374;8.006;2023-02-24T03:35:43;12.30;54.90
30520;DHT22;17300;50.374;8.006;2023-02-24T03:38:11;12.30;54.90
30520;DHT22;17300;50.374;8.006;2023-02-24T03:40:39;12.30;54.90
30520;DHT22;17300;50.374;8.006;2023-02-24T03:43:12;12.30;54.90
30520;DHT22;17300;50.374;8.006;2023-02-24T03:45:42;12.30;55.00
30520;DHT22;17300;50.374;8.006;2023-02-24T03:48:11;12.20;54.80
30520;DHT22;17300;50.374;8.006;2023-02-24T03:50:38;12.30;54.90
30520;DHT22;17300;50.374;8.006;2023-02-24T03:53:23;12.30;55.00
30520;DHT22;17300;50.374;8.006;2023-02-24T03:56:02;12.30;55.00
30520;DHT22;17300;50.374;8.006;2023-02-24T03:58:37;12.30;55.00
30520;DHT22;17300;50.374;8.006;2023-02-24T04:01:12;12.30;54.90
30520;DHT22;17300;50.374;8.006;2023-02-24T04:03:48;12.30;54.90
30520;DHT22;17300;50.374;8.006;2023-02-24T04:06:19;12.30;54.80
30520;DHT22;17300;50.374;8.006;2023-02-24T04:08:51;12.30;54.80
30520;DHT22;17300;50.374;8.006;2023-02-24T04:11:24;12.30;54.80
30520;DHT22;17300;50.374;8.006;2023-02-24T04:13:58;12.30;54.80
30520;DHT22;17300;50.374;8.006;2023-02-24T04:16:34;12.30;54.80
30520;DHT22;17300;50.374;8.006;2023-02-24T04:19:08;12.40;54.80
30520;DHT22;17300;50.374;8.006;2023-02-24T04:21:37;12.40;54.80
30520;DHT22;17300;50.374;8.006;2023-02-24T04:24:08;12.40;54.80
30520;DHT22;17300;50.374;8.006;2023-02-24T04:26:40;12.40;54.80
30520;DHT22;17300;50.374;8.006;2023-02-24T04:29:10;12.30;54.80
30520;DHT22;17300;50.374;8.006;2023-02-24T04:31:45;12.40;54.80
30520;DHT22;17300;50.374;8.006;2023-02-24T04:34:13;12.40;54.80
30520;DHT22;17300;50.374;8.006;2023-02-24T04:36:44;12.40;54.80
30520;DHT22;17300;50.374;8.006;2023-02-24T04:39:15;12.40;54.80
30520;DHT22;17300;50.374;8.006;2023-02-24T04:41:43;12.40;54.80
30520;DHT22;17300;50.374;8.006;2023-02-24T04:44:10;12.30;54.80
30520;DHT22;17300;50.374;8.006;2023-02-24T04:46:37;12.30;54.80
30520;DHT22;17300;50.374;8.006;2023-02-24T04:49:04;12.40;55.00
30520;DHT22;17300;50.374;8.006;2023-02-24T04:51:31;12.40;55.00
30520;DHT22;17300;50.374;8.006;2023-02-24T04:53:58;12.40;54.90
30520;DHT22;17300;50.374;8.006;2023-02-24T04:56:26;12.40;54.90
30520;DHT22;17300;50.374;8.006;2023-02-24T04:58:53;12.40;55.10
30520;DHT22;17300;50.374;8.006;2023-02-24T05:01:20;12.40;54.90
30520;DHT22;17300;50.374;8.006;2023-02-24T05:03:46;12.40;54.90
30520;DHT22;17300;50.374;8.006;2023-02-24T05:06:14;12.40;54.90
30520;DHT22;17300;50.374;8.006;2023-02-24T05:08:41;12.40;54.80
30520;DHT22;17300;50.374;8.006;2023-02-24T05:11:11;12.40;54.80
30520;DHT22;17300;50.374;8.006;2023-02-24T05:13:41;12.30;54.70
30520;DHT22;17300;50.374;8.006;2023-02-24T05:16:12;12.30;54.70
30520;DHT22;17300;50.374;8.006;2023-02-24T05:18:40;12.30;54.70
30520;DHT22;17300;50.374;8.006;2023-02-24T05:21:09;12.30;54.70
30520;DHT22;17300;50.374;8.006;2023-02-24T05:23:54;12.30;54.80
30520;DHT22;17300;50.374;8.006;2023-02-24T05:26:22;12.30;54.80
30520;DHT22;17300;50.374;8.006;2023-02-24T05:28:52;12.30;54.90
30520;DHT22;17300;50.374;8.006;2023-02-24T05:31:22;12.30;54.90
30520;DHT22;17300;50.374;8.006;2023-02-24T05:33:52;12.30;55.00
30520;DHT22;17300;50.374;8.006;2023-02-24T05:36:20;12.30;55.00
30520;DHT22;17300;50.374;8.006;2023-02-24T05:38:49;12.20;54.90
30520;DHT22;17300;50.374;8.006;2023-02-24T05:41:20;12.30;55.00
30520;DHT22;17300;50.374;8.006;2023-02-24T05:43:48;12.30;55.00
30520;DHT22;17300;50.374;8.006;2023-02-24T05:46:19;12.20;54.90
30520;DHT22;17300;50.374;8.006;2023-02-24T05:48:51;12.20;54.90
30520;DHT22;17300;50.374;8.006;2023-02-24T05:51:21;12.20;54.90
30520;DHT22;17300;50.374;8.006;2023-02-24T05:53:49;12.20;54.90
30520;DHT22;17300;50.374;8.006;2023-02-24T05:56:20;12.20;54.90
30520;DHT22;17300;50.374;8.006;2023-02-24T05:58:47;12.20;54.90
30520;DHT22;17300;50.374;8.006;2023-02-24T06:01:15;12.20;54.90
30520;DHT22;17300;50.374;8.006;2023-02-24T06:03:48;12.20;54.90
30520;DHT22;17300;50.374;8.006;2023-02-24T06:06:20;12.20;54.90
30520;DHT22;17300;50.374;8.006;2023-02-24T06:08:47;12.20;54.80
30520;DHT22;17300;50.374;8.006;2023-02-24T06:11:19;12.20;54.70
30520;DHT22;17300;50.374;8.006;2023-02-24T06:13:46;12.20;54.60
30520;DHT22;17300;50.374;8.006;2023-02-24T06:16:13;12.10;54.50
30520;DHT22;17300;50.374;8.006;2023-02-24T06:18:40;12.10;54.50
30520;DHT22;17300;50.374;8.006;2023-02-24T06:21:08;12.10;54.50
30520;DHT22;17300;50.374;8.006;2023-02-24T06:23:37;12.10;54.60
30520;DHT22;17300;50.374;8.006;2023-02-24T06:26:04;12.10;54.60
30520;DHT22;17300;50.374;8.006;2023-02-24T06:28:37;12.10;54.60
30520;DHT22;17300;50.374;8.006;2023-02-24T06:31:04;12.10;54.70
30520;DHT22;17300;50.374;8.006;2023-02-24T06:33:32;12.10;54.70
30520;DHT22;17300;50.374;8.006;2023-02-24T06:35:58;12.10;54.70
30520;DHT22;17300;50.374;8.006;2023-02-24T06:38:26;12.10;54.80
30520;DHT22;17300;50.374;8.006;2023-02-24T06:40:56;12.10;54.80
30520;DHT22;17300;50.374;8.006;2023-02-24T06:43:23;12.10;54.70
30520;DHT22;17300;50.374;8.006;2023-02-24T06:45:49;12.10;54.70
30520;DHT22;17300;50.374;8.006;2023-02-24T06:48:16;12.10;54.60
30520;DHT22;17300;50.374;8.006;2023-02-24T06:50:42;12.10;54.60
30520;DHT22;17300;50.374;8.006;2023-02-24T06:53:09;12.10;54.60
30520;DHT22;17300;50.374;8.006;2023-02-24T06:55:44;12.10;54.60
30520;DHT22;17300;50.374;8.006;2023-02-24T06:58:15;12.10;54.60
30520;DHT22;17300;50.374;8.006;2023-02-24T07:00:43;12.10;54.50
30520;DHT22;17300;50.374;8.006;2023-02-24T07:03:21;12.10;54.40
30520;DHT22;17300;50.374;8.006;2023-02-24T07:05:50;12.10;54.40
30520;DHT22;17300;50.374;8.006;2023-02-24T07:08:20;12.10;54.40
30520;DHT22;17300;50.374;8.006;2023-02-24T07:10:53;12.00;54.40
30520;DHT22;17300;50.374;8.006;2023-02-24T07:13:20;12.00;54.60
30520;DHT22;17300;50.374;8.006;2023-02-24T07:15:48;12.00;54.60
30520;DHT22;17300;50.374;8.006;2023-02-24T07:18:16;12.00;54.60
30520;DHT22;17300;50.374;8.006;2023-02-24T07:20:43;12.00;54.60
30520;DHT22;17300;50.374;8.006;2023-02-24T07:23:12;12.10;54.60
30520;DHT22;17300;50.374;8.006;2023-02-24T07:25:39;12.10;54.60
30520;DHT22;17300;50.374;8.006;2023-02-24T07:28:09;12.10;54.60
30520;DHT22;17300;50.374;8.006;2023-02-24T07:30:37;12.10;54.60
30520;DHT22;17300;50.374;8.006;2023-02-24T07:33:04;12.20;54.70
30520;DHT22;17300;50.374;8.006;2023-02-24T07:35:31;12.20;54.70
30520;DHT22;17300;50.374;8.006;2023-02-24T07:37:59;12.20;54.70
30520;DHT22;17300;50.374;8.006;2023-02-24T07:40:29;12.30;54.70
30520;DHT22;17300;50.374;8.006;2023-02-24T07:42:58;12.30;54.60
30520;DHT22;17300;50.374;8.006;2023-02-24T07:45:26;12.30;54.60
30520;DHT22;17300;50.374;8.006;2023-02-24T07:47:54;12.40;54.60
30520;DHT22;17300;50.374;8.006;2023-02-24T07:50:20;12.40;54.50
30520;DHT22;17300;50.374;8.006;2023-02-24T07:52:48;12.40;54.40
30520;DHT22;17300;50.374;8.006;2023-02-24T07:55:15;12.50;54.50
30520;DHT22;17300;50.374;8.006;2023-02-24T07:57:42;12.50;54.40
30520;DHT22;17300;50.374;8.006;2023-02-24T08:00:13;12.50;54.20
30520;DHT22;17300;50.374;8.006;2023-02-24T08:02:45;12.60;54.20
30520;DHT22;17300;50.374;8.006;2023-02-24T08:05:13;12.60;54.10
30520;DHT22;17300;50.374;8.006;2023-02-24T08:07:40;12.60;54.00
30520;DHT22;17300;50.374;8.006;2023-02-24T08:10:08;12.60;53.90
30520;DHT22;17300;50.374;8.006;2023-02-24T08:12:49;12.60;53.70
30520;DHT22;17300;50.374;8.006;2023-02-24T08:15:19;12.60;53.80
30520;DHT22;17300;50.374;8.006;2023-02-24T08:17:51;12.60;53.80
30520;DHT22;17300;50.374;8.006;2023-02-24T08:20:18;12.60;53.90
30520;DHT22;17300;50.374;8.006;2023-02-24T08:22:50;12.60;54.00
30520;DHT22;17300;50.374;8.006;2023-02-24T08:25:18;12.60;53.90
30520;DHT22;17300;50.374;8.006;2023-02-24T08:27:48;12.60;54.00
30520;DHT22;17300;50.374;8.006;2023-02-24T08:30:21;12.70;54.00
30520;DHT22;17300;50.374;8.006;2023-02-24T08:32:51;12.80;54.10
30520;DHT22;17300;50.374;8.006;2023-02-24T08:35:23;12.70;53.90
30520;DHT22;17300;50.374;8.006;2023-02-24T08:37:59;12.80;53.80
30520;DHT22;17300;50.374;8.006;2023-02-24T08:40:27;12.90;53.80
30520;DHT22;17300;50.374;8.006;2023-02-24T08:43:06;12.90;53.60
30520;DHT22;17300;50.374;8.006;2023-02-24T08:45:45;12.90;53.50
30520;DHT22;17300;50.374;8.006;2023-02-24T08:48:18;12.90;53.50
30520;DHT22;17300;50.374;8.006;2023-02-24T08:50:58;12.90;53.30
30520;DHT22;17300;50.374;8.006;2023-02-24T08:53:25;12.90;54.00
30520;DHT22;17300;50.374;8.006;2023-02-24T08:55:57;12.90;53.40
30520;DHT22;17300;50.374;8.006;2023-02-24T08:58:25;13.00;53.50
30520;DHT22;17300;50.374;8.006;2023-02-24T09:00:52;13.00;53.50
30520;DHT22;17300;50.374;8.006;2023-02-24T09:03:24;13.00;53.70
30520;DHT22;17300;50.374;8.006;2023-02-24T09:05:58;13.10;54.00
30520;DHT22;17300;50.374;8.006;2023-02-24T09:08:25;13.20;54.10
30520;DHT22;17300;50.374;8.006;2023-02-24T09:10:57;13.40;54.60
30520;DHT22;17300;50.374;8.006;2023-02-24T09:13:25;13.60;54.80
30520;DHT22;17300;50.374;8.006;2023-02-24T09:15:58;13.80;54.70
30520;DHT22;17300;50.374;8.006;2023-02-24T09:18:26;14.00;54.90
30520;DHT22;17300;50.374;8.006;2023-02-24T09:20:55;14.30;55.20
30520;DHT22;17300;50.374;8.006;2023-02-24T09:23:40;14.60;55.60
30520;DHT22;17300;50.374;8.006;2023-02-24T09:26:11;15.00;55.90
30520;DHT22;17300;50.374;8.006;2023-02-24T09:28:38;15.40;55.20
30520;DHT22;17300;50.374;8.006;2023-02-24T09:31:14;15.60;54.40
30520;DHT22;17300;50.374;8.006;2023-02-24T09:33:43;15.90;53.80
30520;DHT22;17300;50.374;8.006;2023-02-24T09:36:16;16.10;53.40
30520;DHT22;17300;50.374;8.006;2023-02-24T09:38:47;16.20;53.20
30520;DHT22;17300;50.374;8.006;2023-02-24T09:41:37;16.40;53.20
30520;DHT22;17300;50.374;8.006;2023-02-24T09:44:29;16.50;53.20
30520;DHT22;17300;50.374;8.006;2023-02-24T09:47:02;16.70;53.30
30520;DHT22;17300;50.374;8.006;2023-02-24T09:49:43;17.00;53.80
30520;DHT22;17300;50.374;8.006;2023-02-24T09:52:15;17.40;53.70
30520;DHT22;17300;50.374;8.006;2023-02-24T09:54:46;17.80;54.40
30520;DHT22;17300;50.374;8.006;2023-02-24T09:57:46;18.10;53.80
30520;DHT22;17300;50.374;8.006;2023-02-24T10:00:39;18.50;52.80
30520;DHT22;17300;50.374;8.006;2023-02-24T10:03:13;18.80;52.20
30520;DHT22;17300;50.374;8.006;2023-02-24T10:06:12;18.90;50.70
30520;DHT22;17300;50.374;8.006;2023-02-24T10:08:43;19.00;49.40
30520;DHT22;17300;50.374;8.006;2023-02-24T10:11:12;18.90;48.90
30520;DHT22;17300;50.374;8.006;2023-02-24T10:13:48;18.80;48.40
30520;DHT22;17300;50.374;8.006;2023-02-24T10:16:18;18.60;47.30
30520;DHT22;17300;50.374;8.006;2023-02-24T10:18:51;18.50;48.10
30520;DHT22;17300;50.374;8.006;2023-02-24T10:21:29;18.30;48.10
30520;DHT22;17300;50.374;8.006;2023-02-24T10:24:17;18.20;48.00
30520;DHT22;17300;50.374;8.006;2023-02-24T10:26:51;18.10;48.00
30520;DHT22;17300;50.374;8.006;2023-02-24T10:29:28;17.90;47.50
30520;DHT22;17300;50.374;8.006;2023-02-24T10:32:06;17.70;47.30
30520;DHT22;17300;50.374;8.006;2023-02-24T10:34:41;17.60;47.30
30520;DHT22;17300;50.374;8.006;2023-02-24T10:37:13;17.40;47.30
30520;DHT22;17300;50.374;8.006;2023-02-24T10:39:44;17.20;47.00
30520;DHT22;17300;50.374;8.006;2023-02-24T10:42:22;17.10;47.30
30520;DHT22;17300;50.374;8.006;2023-02-24T10:44:50;16.90;46.50
30520;DHT22;17300;50.374;8.006;2023-02-24T10:47:18;16.80;46.80
30520;DHT22;17300;50.374;8.006;2023-02-24T10:49:47;16.60;46.80
30520;DHT22;17300;50.374;8.006;2023-02-24T10:52:27;16.50;46.90
30520;DHT22;17300;50.374;8.006;2023-02-24T10:55:04;16.40;47.10
30520;DHT22;17300;50.374;8.006;2023-02-24T10:57:41;16.30;47.70
30520;DHT22;17300;50.374;8.006;2023-02-24T11:00:17;16.30;47.80
30520;DHT22;17300;50.374;8.006;2023-02-24T11:03:16;16.40;48.00
30520;DHT22;17300;50.374;8.006;2023-02-24T11:06:00;16.40;48.00
30520;DHT22;17300;50.374;8.006;2023-02-24T11:08:55;16.50;47.80
30520;DHT22;17300;50.374;8.006;2023-02-24T11:11:43;16.40;46.80
30520;DHT22;17300;50.374;8.006;2023-02-24T11:14:28;16.40;47.10
30520;DHT22;17300;50.374;8.006;2023-02-24T11:17:19;16.30;47.00
30520;DHT22;17300;50.374;8.006;2023-02-24T11:19:54;16.20;46.80
30520;DHT22;17300;50.374;8.006;2023-02-24T11:22:27;16.10;46.90
30520;DHT22;17300;50.374;8.006;2023-02-24T11:24:59;16.00;47.00
30520;DHT22;17300;50.374;8.006;2023-02-24T11:27:29;15.90;47.00
30520;DHT22;17300;50.374;8.006;2023-02-24T11:30:06;15.80;46.90
30520;DHT22;17300;50.374;8.006;2023-02-24T11:32:45;15.70;46.50
30520;DHT22;17300;50.374;8.006;2023-02-24T11:35:19;15.60;46.60
30520;DHT22;17300;50.374;8.006;2023-02-24T11:37:57;15.50;46.70
30520;DHT22;17300;50.374;8.006;2023-02-24T11:40:30;15.50;47.20
30520;DHT22;17300;50.374;8.006;2023-02-24T11:43:02;15.40;47.30
30520;DHT22;17300;50.374;8.006;2023-02-24T11:45:34;15.40;47.30
30520;DHT22;17300;50.374;8.006;2023-02-24T11:48:05;15.30;47.30
30520;DHT22;17300;50.374;8.006;2023-02-24T11:50:42;15.30;47.20
30520;DHT22;17300;50.374;8.006;2023-02-24T11:53:18;15.30;47.10
30520;DHT22;17300;50.374;8.006;2023-02-24T11:55:50;15.20;46.90
30520;DHT22;17300;50.374;8.006;2023-02-24T11:58:22;15.20;47.00
30520;DHT22;17300;50.374;8.006;2023-02-24T12:00:56;15.10;47.10
30520;DHT22;17300;50.374;8.006;2023-02-24T12:03:28;15.10;47.20
30520;DHT22;17300;50.374;8.006;2023-02-24T12:06:11;15.00;47.20
30520;DHT22;17300;50.374;8.006;2023-02-24T12:08:41;15.00;47.30
30520;DHT22;17300;50.374;8.006;2023-02-24T12:11:16;15.00;47.60
30520;DHT22;17300;50.374;8.006;2023-02-24T12:13:48;15.00;47.60
30520;DHT22;17300;50.374;8.006;2023-02-24T12:16:18;15.00;47.60
30520;DHT22;17300;50.374;8.006;2023-02-24T12:18:51;15.00;47.60
30520;DHT22;17300;50.374;8.006;2023-02-24T12:21:23;15.00;47.60
30520;DHT22;17300;50.374;8.006;2023-02-24T12:23:56;15.00;47.60
30520;DHT22;17300;50.374;8.006;2023-02-24T12:26:27;15.00;47.60
30520;DHT22;17300;50.374;8.006;2023-02-24T12:29:21;15.00;47.60
30520;DHT22;17300;50.374;8.006;2023-02-24T12:31:55;14.90;47.30
30520;DHT22;17300;50.374;8.006;2023-02-24T12:34:37;15.00;47.40
30520;DHT22;17300;50.374;8.006;2023-02-24T12:37:21;15.00;47.30
30520;DHT22;17300;50.374;8.006;2023-02-24T12:39:58;14.90;47.30
30520;DHT22;17300;50.374;8.006;2023-02-24T12:42:37;14.90;47.30
30520;DHT22;17300;50.374;8.006;2023-02-24T12:45:13;14.90;47.40
30520;DHT22;17300;50.374;8.006;2023-02-24T12:47:52;14.90;47.50
30520;DHT22;17300;50.374;8.006;2023-02-24T12:50:30;14.90;47.30
30520;DHT22;17300;50.374;8.006;2023-02-24T12:53:08;14.90;47.50
30520;DHT22;17300;50.374;8.006;2023-02-24T12:55:44;14.90;47.50
30520;DHT22;17300;50.374;8.006;2023-02-24T12:58:19;14.90;47.50
30520;DHT22;17300;50.374;8.006;2023-02-24T13:01:04;14.90;47.50
30520;DHT22;17300;50.374;8.006;2023-02-24T13:03:58;14.90;47.40
30520;DHT22;17300;50.374;8.006;2023-02-24T13:06:36;14.90;47.30
30520;DHT22;17300;50.374;8.006;2023-02-24T13:09:13;14.90;47.10
30520;DHT22;17300;50.374;8.006;2023-02-24T13:11:50;14.90;47.10
30520;DHT22;17300;50.374;8.006;2023-02-24T13:14:25;14.80;47.00
30520;DHT22;17300;50.374;8.006;2023-02-24T13:17:03;14.80;46.90
30520;DHT22;17300;50.374;8.006;2023-02-24T13:19:30;14.80;46.80
30520;DHT22;17300;50.374;8.006;2023-02-24T13:22:02;14.70;47.00
30520;DHT22;17300;50.374;8.006;2023-02-24T13:24:30;14.70;46.90
30520;DHT22;17300;50.374;8.006;2023-02-24T13:27:06;14.70;47.10
30520;DHT22;17300;50.374;8.006;2023-02-24T13:29:43;14.60;46.90
30520;DHT22;17300;50.374;8.006;2023-02-24T13:32:27;14.60;46.90
30520;DHT22;17300;50.374;8.006;2023-02-24T13:34:57;14.60;46.80
30520;DHT22;17300;50.374;8.006;2023-02-24T13:37:29;14.50;47.00
30520;DHT22;17300;50.374;8.006;2023-02-24T13:39:57;14.40;46.80
30520;DHT22;17300;50.374;8.006;2023-02-24T13:42:26;14.40;47.00
30520;DHT22;17300;50.374;8.006;2023-02-24T13:45:02;14.40;46.90
30520;DHT22;17300;50.374;8.006;2023-02-24T13:50:26;14.30;46.80
30520;DHT22;17300;50.374;8.006;2023-02-24T13:53:09;14.20;46.90
30520;DHT22;17300;50.374;8.006;2023-02-24T13:55:46;14.20;46.90
30520;DHT22;17300;50.374;8.006;2023-02-24T13:58:28;14.20;47.00
30520;DHT22;17300;50.374;8.006;2023-02-24T14:01:05;14.10;46.90
30520;DHT22;17300;50.374;8.006;2023-02-24T14:03:33;14.10;47.00
30520;DHT22;17300;50.374;8.006;2023-02-24T14:06:02;14.00;47.00
30520;DHT22;17300;50.374;8.006;2023-02-24T14:08:38;14.00;46.90
30520;DHT22;17300;50.374;8.006;2023-02-24T14:11:09;13.90;47.40
30520;DHT22;17300;50.374;8.006;2023-02-24T14:13:38;13.90;47.50
30520;DHT22;17300;50.374;8.006;2023-02-24T14:16:08;13.90;47.00
30520;DHT22;17300;50.374;8.006;2023-02-24T14:18:35;13.90;47.00
30520;DHT22;17300;50.374;8.006;2023-02-24T14:21:02;13.80;47.00
30520;DHT22;17300;50.374;8.006;2023-02-24T14:23:31;13.80;47.60
30520;DHT22;17300;50.374;8.006;2023-02-24T14:25:59;13.80;47.00
30520;DHT22;17300;50.374;8.006;2023-02-24T14:28:29;13.70;47.00
30520;DHT22;17300;50.374;8.006;2023-02-24T14:30:57;13.70;47.00
30520;DHT22;17300;50.374;8.006;2023-02-24T14:33:28;13.70;47.00
30520;DHT22;17300;50.374;8.006;2023-02-24T14:35:55;13.60;47.50
30520;DHT22;17300;50.374;8.006;2023-02-24T14:38:31;13.60;47.00
30520;DHT22;17300;50.374;8.006;2023-02-24T14:40:59;13.50;47.00
30520;DHT22;17300;50.374;8.006;2023-02-24T14:43:26;13.50;47.10
30520;DHT22;17300;50.374;8.006;2023-02-24T14:45:54;13.50;47.10
30520;DHT22;17300;50.374;8.006;2023-02-24T14:48:24;13.40;47.00
30520;DHT22;17300;50.374;8.006;2023-02-24T14:50:54;13.30;47.00
30520;DHT22;17300;50.374;8.006;2023-02-24T14:53:22;13.30;47.00
30520;DHT22;17300;50.374;8.006;2023-02-24T14:55:53;13.20;47.10
30520;DHT22;17300;50.374;8.006;2023-02-24T14:58:25;13.10;47.20
30520;DHT22;17300;50.374;8.006;2023-02-24T15:00:56;13.00;47.30
30520;DHT22;17300;50.374;8.006;2023-02-24T15:03:26;13.00;47.40
30520;DHT22;17300;50.374;8.006;2023-02-24T15:05:58;12.90;47.50
30520;DHT22;17300;50.374;8.006;2023-02-24T15:08:30;12.80;47.70
30520;DHT22;17300;50.374;8.006;2023-02-24T15:10:59;12.80;47.90
30520;DHT22;17300;50.374;8.006;2023-02-24T15:13:32;12.70;48.00
30520;DHT22;17300;50.374;8.006;2023-02-24T15:16:04;12.70;48.10
30520;DHT22;17300;50.374;8.006;2023-02-24T15:18:33;12.60;48.00
30520;DHT22;17300;50.374;8.006;2023-02-24T15:21:02;12.60;48.10
30520;DHT22;17300;50.374;8.006;2023-02-24T15:23:31;12.50;48.10
30520;DHT22;17300;50.374;8.006;2023-02-24T15:25:58;12.50;48.10
30520;DHT22;17300;50.374;8.006;2023-02-24T15:28:27;12.40;48.00
30520;DHT22;17300;50.374;8.006;2023-02-24T15:31:01;12.30;48.10
30520;DHT22;17300;50.374;8.006;2023-02-24T15:33:32;12.30;48.20
30520;DHT22;17300;50.374;8.006;2023-02-24T15:36:05;12.30;48.30
30520;DHT22;17300;50.374;8.006;2023-02-24T15:38:36;12.30;48.60
30520;DHT22;17300;50.374;8.006;2023-02-24T15:41:05;12.20;48.50
30520;DHT22;17300;50.374;8.006;2023-02-24T15:43:33;12.10;48.60
30520;DHT22;17300;50.374;8.006;2023-02-24T15:46:18;12.10;48.60
30520;DHT22;17300;50.374;8.006;2023-02-24T15:48:47;12.00;48.60
30520;DHT22;17300;50.374;8.006;2023-02-24T15:51:26;12.00;48.50
30520;DHT22;17300;50.374;8.006;2023-02-24T15:53:54;11.90;48.80
30520;DHT22;17300;50.374;8.006;2023-02-24T15:56:21;11.90;48.70
30520;DHT22;17300;50.374;8.006;2023-02-24T15:58:48;11.80;48.80
30520;DHT22;17300;50.374;8.006;2023-02-24T16:01:14;11.70;48.80
30520;DHT22;17300;50.374;8.006;2023-02-24T16:03:41;11.70;48.80
30520;DHT22;17300;50.374;8.006;2023-02-24T16:06:15;11.60;48.80